Latest Weather Observations for Hopetoun North

IDW60801

Issued at 9:32 am WST Saturday 28 March 2015 (issued every 30 minutes, with the page automatically refreshed every 10 minutes)

About weather observations | Map of weather stations | Latest weather observations for WA | Other Formats
Station Details ID: 009961 Name: HOPETOUN NORTH Lat: -33.93 Lon: 120.13 Height: 26.0 m
Data from the previous 72 hours. | See also: Recent months at Hopetoun North
Date/Time
WST
Temp
°C
App
Temp
°C
Dew
Point
Rel
Hum
%
Delta-T
°C
Wind Press
QNH
hPa
Press
MSL
hPa
Rain
since 9 am
mm
Dir
 
Spd
km/h
Gust
km/h
Spd
kts
Gust
kts
28/09:30am 19.8 19.2 17.6 87 1.3 SW 17 22 9 12 1020.3 1020.2 0.0
28/09:00am 20.2 20.0 17.6 85 1.6 WSW 15 20 8 11 1020.2 1020.1 0.0
28/08:30am 19.5 18.7 17.1 86 1.5 WSW 17 24 9 13 1020.1 1020.0 0.0
28/08:00am 18.8 18.7 16.0 84 1.7 WSW 11 17 6 9 1019.9 1019.8 0.0
28/07:30am 17.6 17.0 14.5 82 1.8 WSW 11 17 6 9 1019.8 1019.7 0.0
28/07:00am 15.4 15.0 13.1 86 1.3 W 7 11 4 6 1019.6 1019.5 0.0
28/06:30am 14.6 13.6 12.3 86 1.3 NW 9 11 5 6 1019.2 1019.1 0.0
28/06:00am 14.7 13.5 12.9 89 1.0 NW 11 13 6 7 1018.8 1018.7 0.0
28/05:30am 15.0 14.0 13.4 90 0.9 NW 11 13 6 7 1018.6 1018.5 0.0
28/05:00am 15.4 14.5 13.8 90 0.9 WNW 11 15 6 8 1018.5 1018.4 0.0
28/04:30am 15.2 14.5 14.4 95 0.5 W 11 15 6 8 1018.2 1018.1 0.0
28/04:00am 15.8 15.4 14.2 90 0.9 NW 9 11 5 6 1018.1 1018.0 0.0
28/03:30am 15.3 15.1 13.5 89 1.0 NNW 7 11 4 6 1017.9 1017.8 0.0
28/03:00am 15.7 15.2 13.7 88 1.1 NNW 9 15 5 8 1017.8 1017.7 0.0
28/02:30am 15.8 14.9 13.8 88 1.1 N 11 15 6 8 1017.8 1017.7 0.0
28/02:00am 15.5 14.8 13.3 87 1.2 NNW 9 15 5 8 1018.0 1017.9 0.0
28/01:30am 15.6 14.5 13.1 85 1.4 N 11 15 6 8 1018.0 1017.9 0.0
28/01:00am 14.7 14.0 12.0 84 1.5 N 7 9 4 5 1018.3 1018.2 0.0
28/12:30am 16.1 15.3 12.8 81 1.8 N 9 15 5 8 1018.3 1018.2 0.0
28/12:00am 16.5 15.7 12.8 79 2.0 NNE 9 13 5 7 1018.2 1018.1 0.0
 
Date/Time
WST
Temp
°C
App
Temp
°C
Dew
Point
Rel
Hum
%
Delta-T
°C
Wind Press
QNH
hPa
Press
MSL
hPa
Rain
since 9 am
mm
Dir
 
Spd
km/h
Gust
km/h
Spd
kts
Gust
kts
27/11:30pm 15.4 14.2 11.6 78 2.0 N 9 11 5 6 1018.3 1018.2 0.0
27/11:00pm 16.0 14.9 11.8 76 2.3 N 9 13 5 7 1018.5 1018.4 0.0
27/10:30pm 16.3 15.3 12.3 77 2.2 NNE 9 11 5 6 1018.7 1018.6 0.0
27/10:00pm 17.7 17.1 13.6 77 2.3 NNE 9 11 5 6 1019.0 1018.9 0.0
27/09:30pm 17.9 17.5 15.2 84 1.6 NE 11 13 6 7 1019.0 1018.9 0.0
27/09:00pm 18.3 18.7 15.4 83 1.7 NE 7 9 4 5 1019.1 1019.0 0.0
27/08:30pm 18.8 19.9 14.7 77 2.4 N 2 4 1 2 1019.0 1018.9 0.0
27/08:00pm 19.5 19.6 14.5 73 2.9 NNE 7 11 4 6 1018.8 1018.7 0.0
27/07:30pm 20.1 20.6 15.5 75 2.7 ENE 7 9 4 5 1018.4 1018.3 0.0
27/07:00pm 20.4 19.8 16.6 79 2.3 SE 15 20 8 11 1018.1 1018.0 0.0
27/06:30pm 20.3 20.0 16.5 79 2.3 SE 13 20 7 11 1018.2 1018.1 0.0
27/06:00pm 20.5 20.3 16.7 79 2.3 SSE 13 19 7 10 1018.4 1018.3 0.0
27/05:30pm 20.8 20.9 16.4 76 2.7 S 11 13 6 7 1018.5 1018.4 0.0
27/05:00pm 20.9 21.2 16.1 74 2.9 SSE 9 13 5 7 1018.4 1018.3 0.0
27/04:30pm 21.1 21.5 16.3 74 2.9 SSE 9 19 5 10 1018.3 1018.2 0.0
27/04:00pm 21.3 21.2 16.0 72 3.2 SE 11 17 6 9 1018.3 1018.2 0.0
27/03:30pm 21.1 20.1 15.6 71 3.3 SE 15 22 8 12 1018.4 1018.3 0.0
27/03:00pm 21.5 20.2 14.9 66 3.9 ESE 15 28 8 15 1018.7 1018.6 0.0
27/02:30pm 21.3 20.0 14.9 67 3.8 ESE 15 20 8 11 1018.9 1018.8 0.0
27/02:00pm 21.8 20.7 15.4 67 3.8 SE 15 20 8 11 1019.2 1019.1 0.0
27/01:30pm 21.3 20.2 16.3 73 3.0 SE 17 22 9 12 1019.5 1019.4 0.0
27/01:00pm 21.2 19.1 15.3 69 3.5 SSE 20 26 11 14 1019.7 1019.6 0.0
27/12:30pm 22.5 20.2 14.6 61 4.7 SSE 20 26 11 14 1020.2 1020.1 0.0
27/12:00pm 24.0 22.2 14.4 55 5.7 S 17 22 9 12 1020.6 1020.5 0.0
27/11:30am 25.8 24.2 7.9 32 9.6 NNW 6 13 3 7 1021.1 1021.0 0.0
27/11:00am 22.6 20.2 6.8 36 8.1 N 9 13 5 7 1021.5 1021.4 0.0
27/10:30am 23.8 20.4 7.8 36 8.4 NNE 15 20 8 11 1021.9 1021.8 0.0
27/10:00am 20.9 17.7 8.5 45 6.5 N 15 22 8 12 1022.5 1022.4 0.0
27/09:30am 20.1 16.8 9.4 50 5.7 NNE 17 24 9 13 1022.8 1022.7 0.0
27/09:00am 19.3 15.5 9.8 54 5.0 NNE 20 32 11 17 1022.8 1022.7 0.2
27/08:30am 18.3 15.1 9.9 58 4.5 NNE 17 26 9 14 1023.0 1022.9 0.2
27/08:00am 16.6 13.6 10.5 67 3.2 NNE 17 22 9 12 1023.0 1022.9 0.2
27/07:30am 15.2 12.2 10.6 74 2.4 NE 17 19 9 10 1023.0 1022.9 0.2
27/07:00am 14.6 12.2 10.2 75 2.3 NNE 13 19 7 10 1023.1 1023.0 0.2
27/06:30am 14.3 11.2 10.3 77 2.1 NNE 17 22 9 12 1023.3 1023.2 0.2
27/06:00am 12.3 9.9 10.2 87 1.1 NNE 13 15 7 8 1023.3 1023.2 0.2
27/05:30am 11.7 9.2 9.8 88 1.0 NE 13 15 7 8 1023.2 1023.1 0.2
27/05:00am 11.4 9.2 9.5 88 1.0 NE 11 13 6 7 1023.2 1023.1 0.2
27/04:30am 11.3 9.2 9.6 89 0.9 NE 11 13 6 7 1023.4 1023.3 0.2
27/04:00am 11.1 8.5 9.5 90 0.8 NNE 13 15 7 8 1023.4 1023.3 0.2
27/03:30am 10.4 7.8 9.2 92 0.6 NE 13 15 7 8 1023.2 1023.1 0.2
27/03:00am 10.3 8.0 9.1 92 0.6 NE 11 13 6 7 1023.6 1023.5 0.2
27/02:30am 10.1 8.2 8.9 92 0.6 NE 9 11 5 6 1023.9 1023.8 0.2
27/02:00am 10.0 8.0 8.6 91 0.7 NE 9 9 5 5 1024.2 1024.1 0.2
27/01:30am 11.1 8.9 9.2 88 0.9 ENE 11 13 6 7 1024.4 1024.3 0.2
27/01:00am 11.7 9.6 9.6 87 1.1 ENE 11 13 6 7 1024.4 1024.3 0.2
27/12:30am 12.4 9.9 9.8 84 1.3 ENE 13 15 7 8 1024.5 1024.4 0.2
27/12:00am 12.7 10.7 10.1 84 1.3 ENE 11 13 6 7 1024.8 1024.7 0.2
 
Date/Time
WST
Temp
°C
App
Temp
°C
Dew
Point
Rel
Hum
%
Delta-T
°C
Wind Press
QNH
hPa
Press
MSL
hPa
Rain
since 9 am
mm
Dir
 
Spd
km/h
Gust
km/h
Spd
kts
Gust
kts
26/11:30pm 13.4 11.5 10.6 83 1.5 NE 11 15 6 8 1025.1 1025.0 0.2
26/11:00pm 14.0 12.3 11.2 83 1.5 NE 11 15 6 8 1025.1 1025.0 0.2
26/10:30pm 13.4 10.2 10.0 80 1.8 NE 17 20 9 11 1025.4 1025.3 0.2
26/10:00pm 13.5 11.4 11.0 85 1.3 NE 13 19 7 10 1025.7 1025.6 0.2
26/09:30pm 13.9 12.4 11.9 88 1.1 NE 11 17 6 9 1025.7 1025.6 0.2
26/09:00pm 14.9 13.7 12.8 87 1.1 ENE 11 15 6 8 1025.8 1025.7 0.2
26/08:30pm 16.5 14.9 13.8 84 1.5 E 15 22 8 12 1025.6 1025.5 0.2
26/08:00pm 16.0 13.3 12.9 82 1.7 E 19 28 10 15 1025.7 1025.6 0.2
26/07:30pm 17.5 15.0 14.0 80 2.0 E 20 32 11 17 1025.8 1025.7 0.2
26/07:00pm 17.6 14.7 14.1 80 2.0 E 22 33 12 18 1025.6 1025.5 0.2
26/06:30pm 17.8 14.9 13.9 78 2.2 E 22 35 12 19 1025.5 1025.4 0.2
26/06:00pm 18.1 13.9 13.6 75 2.5 E 28 39 15 21 1025.4 1025.3 0.2
26/05:30pm 18.6 14.5 13.7 73 2.8 ESE 28 41 15 22 1025.2 1025.1 0.2
26/05:00pm 19.4 15.4 14.0 71 3.1 ESE 28 43 15 23 1025.3 1025.2 0.2
26/04:30pm 19.9 15.7 13.4 66 3.7 ESE 28 41 15 22 1025.2 1025.1 0.2
26/04:00pm 20.2 15.9 13.2 64 4.0 ESE 28 46 15 25 1025.1 1025.0 0.2
26/03:58pm 20.4 16.2 13.4 64 4.0 ESE 28 46 15 25 1025.1 1025.0 0.2
26/03:30pm 20.4 15.2 12.9 62 4.3 ESE 32 46 17 25 1025.2 1025.1 0.2
26/03:00pm 20.6 15.3 12.6 60 4.5 ESE 32 46 17 25 1025.3 1025.2 0.2
26/02:30pm 20.9 15.7 12.8 60 4.6 ESE 32 43 17 23 1025.6 1025.5 0.2
26/02:00pm 21.1 16.7 12.8 59 4.7 ESE 28 43 15 23 1025.8 1025.7 0.2
26/01:30pm 20.9 15.9 12.1 57 4.9 ESE 30 39 16 21 1026.3 1026.2 0.2
26/01:00pm 20.7 15.8 12.7 60 4.5 ESE 30 43 16 23 1026.6 1026.5 0.2
26/12:30pm 20.8 16.5 13.3 62 4.3 ESE 28 39 15 21 1027.0 1026.9 0.2
26/12:00pm 20.8 17.2 13.0 61 4.4 ESE 24 35 13 19 1027.4 1027.3 0.2
26/11:30am 22.0 18.3 10.2 47 6.4 ENE 20 32 11 17 1027.7 1027.6 0.2
26/11:00am 20.9 17.2 10.1 50 5.8 ENE 20 30 11 16 1028.3 1028.2 0.2
26/10:30am 20.0 16.4 10.4 54 5.2 ENE 20 33 11 18 1028.9 1028.8 0.2
26/10:00am 18.2 15.0 10.1 59 4.3 ENE 17 30 9 16 1029.6 1029.5 0.0
26/09:30am 18.0 14.4 10.4 61 4.1 ENE 20 32 11 17 1029.9 1029.8 0.0
26/09:00am 17.2 12.7 10.1 63 3.7 ENE 24 33 13 18 1030.1 1030.0 1.8
26/08:30am 15.8 11.5 9.5 66 3.3 ENE 22 32 12 17 1030.2 1030.1 1.8
26/08:00am 14.3 11.4 9.5 73 2.4 ENE 15 24 8 13 1030.3 1030.2 1.8
26/07:30am 11.2 9.7 9.1 87 1.0 NE 7 9 4 5 1030.2 1030.1 1.8
26/07:00am 9.0 7.3 8.2 95 0.4 NE 7 9 4 5 1030.1 1030.0 1.8
26/06:30am 8.0 5.8 7.9 99 0.0 NE 9 9 5 5 1029.8 1029.7 1.8
26/06:00am 7.9 6.0 7.6 98 0.1 NE 7 7 4 4 1029.6 1029.5 1.8
26/05:30am 8.3 6.1 7.9 97 0.2 NE 9 9 5 5 1029.4 1029.3 1.8
26/05:00am 8.5 6.7 7.9 96 0.3 NE 7 9 4 5 1029.2 1029.1 1.8
26/04:30am 9.0 6.9 8.1 94 0.4 NE 9 11 5 6 1029.0 1028.9 1.8
26/04:00am 9.8 7.7 8.4 91 0.7 NE 9 11 5 6 1029.1 1029.0 1.8
26/03:30am 11.0 8.3 8.8 86 1.1 NE 13 19 7 10 1029.0 1028.9 1.8
26/03:00am 11.2 8.5 9.1 87 1.0 NE 13 19 7 10 1028.9 1028.8 1.8
26/02:30am 11.4 8.9 9.8 90 0.8 NE 13 19 7 10 1028.9 1028.8 1.8
26/02:00am 11.1 9.4 10.0 93 0.6 NE 9 13 5 7 1029.2 1029.1 1.8
26/01:30am 10.9 9.2 9.8 93 0.6 NE 9 11 5 6 1029.3 1029.2 1.8
26/01:00am 11.1 9.0 9.9 92 0.6 NE 11 13 6 7 1029.3 1029.2 1.8
26/12:30am 11.5 9.5 10.2 92 0.7 NE 11 13 6 7 1029.4 1029.3 1.8
26/12:00am 11.8 10.3 10.4 91 0.7 NE 9 13 5 7 1029.4 1029.3 1.8
 
Date/Time
WST
Temp
°C
App
Temp
°C
Dew
Point
Rel
Hum
%
Delta-T
°C
Wind Press
QNH
hPa
Press
MSL
hPa
Rain
since 9 am
mm
Dir
 
Spd
km/h
Gust
km/h
Spd
kts
Gust
kts
25/11:30pm 11.9 10.4 10.6 92 0.7 NE 9 11 5 6 1029.3 1029.2 1.8
25/11:00pm 11.5 9.5 10.2 92 0.7 NE 11 13 6 7 1029.3 1029.2 1.8
25/10:30pm 12.3 11.1 10.2 87 1.1 NNE 7 9 4 5 1029.2 1029.1 1.8
25/10:00pm 13.9 13.0 10.7 81 1.7 NE 6 7 3 4 1029.2 1029.1 1.8
25/09:30pm 14.9 13.9 10.9 77 2.1 NE 7 13 4 7 1029.4 1029.3 1.8
25/09:00pm 15.4 14.0 11.0 75 2.3 ENE 9 13 5 7 1029.4 1029.3 1.8
25/08:30pm 15.9 13.8 11.1 73 2.6 ENE 13 20 7 11 1029.4 1029.3 1.8
25/08:00pm 16.2 14.5 11.2 72 2.7 ENE 11 20 6 11 1029.3 1029.2 1.8
25/07:30pm 16.7 14.4 11.6 72 2.8 E 15 24 8 13 1029.1 1029.0 1.8
25/07:00pm 16.8 13.7 11.7 72 2.8 E 19 28 10 15 1028.8 1028.7 1.8
25/06:30pm 17.1 14.5 12.0 72 2.8 ESE 17 26 9 14 1028.5 1028.4 1.8
25/06:00pm 17.1 13.9 12.0 72 2.8 ESE 20 30 11 16 1028.4 1028.3 1.8
25/05:30pm 17.3 14.3 12.6 74 2.6 ESE 20 30 11 16 1028.4 1028.3 1.8
25/05:00pm 17.7 14.8 13.0 74 2.6 ESE 20 28 11 15 1028.1 1028.0 1.8
25/04:30pm 17.9 14.9 12.4 70 3.1 ESE 20 30 11 16 1028.0 1027.9 1.8
25/04:00pm 18.5 15.3 13.1 71 3.0 ESE 22 33 12 18 1027.8 1027.7 1.8
25/03:30pm 18.5 15.1 13.8 74 2.7 SE 24 37 13 20 1027.8 1027.7 1.8
25/03:00pm 18.2 14.7 13.3 73 2.8 SE 24 33 13 18 1027.9 1027.8 1.8
25/02:30pm 18.4 15.1 13.9 75 2.6 SE 24 37 13 20 1027.8 1027.7 1.8
25/02:00pm 17.8 14.9 13.9 78 2.2 SE 22 35 12 19 1027.7 1027.6 1.8
25/01:30pm 17.0 14.8 14.3 84 1.5 ESE 19 28 10 15 1027.8 1027.7 1.8
25/01:00pm 16.8 15.8 16.6 99 0.1 ESE 17 28 9 15 1028.1 1028.0 1.8
25/12:30pm 17.3 14.8 16.2 93 0.7 ESE 24 41 13 22 1028.2 1028.1 1.6
25/12:00pm 19.3 16.9 16.5 84 1.7 ESE 24 37 13 20 1028.2 1028.1 1.6
25/11:30am 18.5 17.8 17.3 93 0.7 ESE 17 24 9 13 1028.1 1028.0 1.6
25/11:00am 16.3 16.6 16.1 99 0.1 ENE 9 13 5 7 1028.4 1028.3 1.4
25/10:30am 18.3 18.1 14.8 80 2.0 ESE 9 17 5 9 1028.3 1028.2 0.0
25/10:00am 17.8 17.9 15.4 86 1.4 SE 9 13 5 7 1028.4 1028.3 0.0

Other Formats:

Comma delimited format used in spreadsheet applications
http://www.bom.gov.au/fwo/IDW60801/IDW60801.95635.axf

JavaScript Object Notation format (JSON) in row-major order
http://www.bom.gov.au/fwo/IDW60801/IDW60801.95635.json